createdAt,value
2019-04-20T00:00:42.941Z,56.4401
2019-04-20T00:01:45.310Z,56.0189
2019-04-20T00:02:53.209Z,56.2799
2019-04-20T00:03:56.356Z,57.3526
2019-04-20T00:04:59.297Z,57.3144
2019-04-20T00:06:03.425Z,58.5824
2019-04-20T00:07:06.258Z,58.8540
2019-04-20T00:08:19.227Z,59.7131
2019-04-20T00:09:24.020Z,60.0168
2019-04-20T00:10:27.365Z,59.9832
2019-04-20T00:11:45.886Z,59.9008
2019-04-20T00:12:53.616Z,59.7498
2019-04-20T00:13:55.210Z,59.8566
2019-04-20T00:14:56.499Z,60.6531
2019-04-20T00:15:58.305Z,59.1516
2019-04-20T00:17:01.290Z,58.8632
2019-04-20T00:18:06.694Z,59.1608
2019-04-20T00:19:15.293Z,59.3622
2019-04-20T00:20:25.956Z,58.9090
2019-04-20T00:21:27.293Z,58.3322
2019-04-20T00:22:38.217Z,58.3688
2019-04-20T00:23:43.071Z,58.3551
2019-04-20T00:24:49.649Z,59.0265
2019-04-20T00:26:05.678Z,58.5138
2019-04-20T00:27:28.464Z,58.1201
2019-04-20T00:28:31.607Z,57.7966
2019-04-20T00:29:36.696Z,57.7142
2019-04-20T00:30:48.039Z,57.0077
2019-04-20T00:31:45.945Z,56.3729
2019-04-20T00:32:55.537Z,58.0560
2019-04-20T00:33:59.359Z,57.5402
2019-04-20T00:34:58.302Z,57.5158
2019-04-20T00:36:01.284Z,57.7279
2019-04-20T00:37:05.348Z,58.4970
2019-04-20T00:38:10.293Z,58.6465
2019-04-20T00:39:15.114Z,58.8083
2019-04-20T00:40:21.280Z,58.3688
2019-04-20T00:41:25.720Z,59.4339
2019-04-20T00:42:36.687Z,59.2874
2019-04-20T00:43:39.102Z,59.7177
2019-04-20T00:44:49.593Z,59.7543
2019-04-20T00:46:02.000Z,60.9537
2019-04-20T00:47:14.222Z,60.9873
2019-04-20T00:48:22.669Z,61.1048
2019-04-20T00:49:30.622Z,61.4115
2019-04-20T00:50:40.404Z,61.5503
2019-04-20T00:51:51.148Z,61.2833
2019-04-20T00:52:54.214Z,61.3993
2019-04-20T00:53:51.861Z,61.6693
2019-04-20T00:54:56.273Z,62.0310
2019-04-20T00:55:59.321Z,61.2161
2019-04-20T00:57:13.492Z,60.9079
2019-04-20T00:58:19.308Z,61.3626
2019-04-20T00:59:32.333Z,62.0890
2019-04-20T01:00:40.733Z,62.9374
2019-04-20T01:01:52.348Z,62.2507
2019-04-20T01:02:55.526Z,63.0091
2019-04-20T01:04:10.733Z,63.1235
2019-04-20T01:06:24.813Z,62.5116
2019-04-20T01:07:29.085Z,62.3880
2019-04-20T01:08:23.355Z,62.3331
2019-04-20T01:09:26.523Z,61.9928
2019-04-20T01:10:37.205Z,61.9715
2019-04-20T01:11:42.250Z,61.6876
2019-04-20T01:12:45.847Z,62.0340
2019-04-20T01:13:55.388Z,62.1683
2019-04-20T01:15:02.743Z,61.7151
2019-04-20T01:16:19.491Z,61.9699
2019-04-20T01:17:14.310Z,62.1042
2019-04-20T01:18:17.303Z,62.2766
2019-04-20T01:19:20.570Z,62.3194
2019-04-20T01:20:26.551Z,63.1235
2019-04-20T01:21:33.430Z,63.2624
2019-04-20T01:22:44.637Z,62.2995
2019-04-20T01:23:52.639Z,62.4979
2019-04-20T01:24:54.611Z,62.5483
2019-04-20T01:26:03.958Z,62.8946
2019-04-20T01:27:16.752Z,63.0655
2019-04-20T01:28:35.461Z,62.9358
2019-04-20T01:29:32.381Z,62.1622
2019-04-20T01:30:35.964Z,61.5488
2019-04-20T01:31:52.703Z,62.0569
2019-04-20T01:33:00.764Z,62.8595
2019-04-20T01:34:03.046Z,62.3972
2019-04-20T01:35:14.728Z,62.9328
2019-04-20T01:36:34.960Z,62.7390
2019-04-20T01:37:32.792Z,62.6902
2019-04-20T01:38:45.040Z,62.8824
2019-04-20T01:39:43.109Z,63.4623
2019-04-20T01:40:44.428Z,63.5905
2019-04-20T01:41:47.690Z,64.1077
2019-04-20T01:42:51.202Z,64.1123
2019-04-20T01:43:54.453Z,64.2725
2019-04-20T01:44:58.708Z,64.5762
2019-04-20T01:46:11.314Z,64.7395
2019-04-20T01:47:12.068Z,65.7343
2019-04-20T01:48:24.959Z,65.0111
2019-04-20T01:49:28.638Z,65.7343
2019-04-20T01:50:35.345Z,66.1692
2019-04-20T01:51:53.813Z,65.6519
2019-04-20T01:52:58.263Z,65.3437
2019-04-20T01:54:12.018Z,65.9770
2019-04-20T01:55:24.851Z,66.0670
2019-04-20T01:56:30.249Z,65.4047
2019-04-20T01:57:25.977Z,65.4856
2019-04-20T01:58:50.592Z,66.5476
2019-04-20T01:59:49.338Z,66.6987
2019-04-20T02:00:45.947Z,66.2409
2019-04-20T02:01:55.757Z,66.3325
2019-04-20T02:03:01.942Z,65.6687
2019-04-20T02:04:07.330Z,65.7069
2019-04-20T02:05:20.588Z,65.7877
2019-04-20T02:06:25.071Z,65.4398
2019-04-20T02:07:36.703Z,65.5909
2019-04-20T02:08:38.310Z,65.3757
2019-04-20T02:09:47.483Z,65.8991
2019-04-20T02:10:54.369Z,66.2135
2019-04-20T02:12:06.902Z,66.5156
2019-04-20T02:13:06.682Z,66.3020
2019-04-20T02:14:13.438Z,66.1906
2019-04-20T02:15:28.127Z,65.9953
2019-04-20T02:16:33.606Z,66.1692
2019-04-20T02:17:40.752Z,66.2272
2019-04-20T02:18:58.729Z,66.2135
2019-04-20T02:20:10.450Z,66.0777
2019-04-20T02:21:16.582Z,66.3478
2019-04-20T02:22:15.719Z,66.8467
2019-04-20T02:23:25.371Z,66.8589
2019-04-20T02:24:21.676Z,66.6316
2019-04-20T02:25:24.955Z,66.6712
2019-04-20T02:26:28.320Z,66.5797
2019-04-20T02:27:38.646Z,67.0207
2019-04-20T02:29:06.033Z,67.4876
2019-04-20T02:30:14.166Z,67.3167
2019-04-20T02:31:34.914Z,65.6367
2019-04-20T02:32:40.267Z,66.3325
2019-04-20T02:33:59.305Z,66.6636
2019-04-20T02:36:11.033Z,66.5080
2019-04-20T02:38:22.593Z,66.5110
2019-04-20T02:40:38.846Z,66.3157
2019-04-20T02:41:47.737Z,66.1768
2019-04-20T02:42:51.585Z,66.5629
2019-04-20T02:44:06.016Z,66.9383
2019-04-20T02:45:13.020Z,67.2450
2019-04-20T02:46:12.322Z,67.3487
2019-04-20T02:47:21.413Z,67.5135
2019-04-20T02:48:25.268Z,67.5746
2019-04-20T02:49:42.076Z,67.9774
2019-04-20T02:50:43.260Z,68.3558
2019-04-20T02:53:06.082Z,68.3024
2019-04-20T02:55:14.450Z,68.7678
2019-04-20T02:58:41.562Z,69.1630
2019-04-20T02:59:59.547Z,68.8563
2019-04-20T03:00:44.792Z,68.9921
2019-04-20T03:01:52.167Z,69.0623
2019-04-20T03:02:52.871Z,68.8731
2019-04-20T03:03:52.623Z,69.0745
2019-04-20T03:05:06.727Z,69.2271
2019-04-20T03:06:18.478Z,68.5451
2019-04-20T03:07:23.951Z,68.7175
2019-04-20T03:08:38.223Z,69.1249
2019-04-20T03:09:46.988Z,68.8380
2019-04-20T03:11:00.773Z,68.8746
2019-04-20T03:12:23.835Z,68.8640
2019-04-20T03:13:16.737Z,69.2393
2019-04-20T03:14:18.564Z,68.9021
2019-04-20T03:15:30.203Z,68.7541
2019-04-20T03:16:32.415Z,68.6732
2019-04-20T03:17:46.430Z,68.9296
2019-04-20T03:18:51.205Z,69.0944
2019-04-20T03:19:54.992Z,69.7307
2019-04-20T03:21:12.734Z,68.5267
2019-04-20T03:22:23.622Z,68.1544
2019-04-20T03:23:30.053Z,68.3970
2019-04-20T03:24:38.812Z,68.4474
2019-04-20T03:25:43.076Z,66.9154
2019-04-20T03:26:40.812Z,67.0069
2019-04-20T03:27:51.638Z,67.6280
2019-04-20T03:30:42.408Z,67.2251
2019-04-20T03:35:00.591Z,68.3482
2019-04-20T03:36:01.935Z,67.6875
2019-04-20T03:37:08.488Z,66.7826
2019-04-20T03:38:00.160Z,66.9917
2019-04-20T03:39:16.767Z,66.7628
2019-04-20T03:40:17.607Z,67.2999
2019-04-20T03:41:19.553Z,67.8889
2019-04-20T03:42:20.185Z,67.3320
2019-04-20T03:43:24.446Z,67.0985
2019-04-20T03:44:30.702Z,67.5090
2019-04-20T03:45:42.702Z,67.3854
2019-04-20T03:46:51.802Z,66.9749
2019-04-20T03:48:03.043Z,67.2816
2019-04-20T03:49:21.357Z,67.2847
2019-04-20T03:50:31.925Z,66.7689
2019-04-20T03:51:45.346Z,65.0736
2019-04-20T03:52:43.628Z,65.2354
2019-04-20T03:53:50.326Z,65.8030
2019-04-20T03:54:51.366Z,64.6250
2019-04-20T03:56:02.216Z,65.0187
2019-04-20T03:57:24.777Z,65.1743
2019-04-20T03:58:24.217Z,65.0370
2019-04-20T03:59:27.657Z,65.2628
2019-04-20T04:00:36.205Z,63.5920
2019-04-20T04:02:08.746Z,62.3636
2019-04-20T04:03:09.387Z,62.3240
2019-04-20T04:04:12.159Z,62.2538
2019-04-20T04:05:09.457Z,62.6581
2019-04-20T04:06:09.616Z,64.7822
2019-04-20T04:07:18.510Z,63.8804
2019-04-20T04:08:26.686Z,59.7696
2019-04-20T04:09:32.634Z,58.8174
2019-04-20T04:10:50.507Z,61.2741
2019-04-20T04:11:56.030Z,62.9541
2019-04-20T04:12:49.742Z,59.1775
2019-04-20T04:13:54.599Z,61.0269
2019-04-20T04:14:56.324Z,59.7513
2019-04-20T04:16:04.425Z,60.2075
2019-04-20T04:17:07.455Z,57.7951
2019-04-20T04:18:17.835Z,58.4146
2019-04-20T04:19:25.478Z,56.9543
2019-04-20T04:20:34.380Z,56.9390
2019-04-20T04:21:49.842Z,58.0514
2019-04-20T04:23:00.113Z,59.0906
2019-04-20T04:24:05.515Z,59.3561
2019-04-20T04:25:15.008Z,60.0336
2019-04-20T04:26:27.441Z,60.7340
2019-04-20T04:27:38.559Z,61.6281
2019-04-20T04:28:41.139Z,62.1256
2019-04-20T04:29:51.279Z,62.8214
2019-04-20T04:30:59.937Z,63.7156
2019-04-20T04:32:17.299Z,63.9658
2019-04-20T04:34:22.937Z,65.3864
2019-04-20T04:35:24.423Z,66.2196
2019-04-20T04:36:35.915Z,66.5995
2019-04-20T04:37:45.925Z,67.3945
2019-04-20T04:38:58.874Z,67.9713
2019-04-20T04:40:14.875Z,68.1041
2019-04-20T04:41:13.638Z,68.7861
2019-04-20T04:42:25.117Z,69.0578
2019-04-20T04:43:26.732Z,69.2348
2019-04-20T04:44:30.231Z,69.2851
2019-04-20T04:45:26.541Z,69.3004
2019-04-20T04:46:33.895Z,69.3553
2019-04-20T04:47:39.306Z,69.5918
2019-04-20T04:48:45.978Z,70.2373
2019-04-20T04:50:01.054Z,70.1289
2019-04-20T04:51:03.843Z,70.3487
2019-04-20T04:52:11.161Z,70.7469
2019-04-20T04:53:27.175Z,70.3212
2019-04-20T04:54:34.051Z,70.6584
2019-04-20T04:55:41.767Z,70.9529
2019-04-20T04:56:39.626Z,70.9987
2019-04-20T04:57:43.244Z,69.9916
2019-04-20T04:58:46.756Z,70.3563
2019-04-20T04:59:50.821Z,70.5577
2019-04-20T05:01:03.761Z,70.5684
2019-04-20T05:02:03.410Z,71.0948
2019-04-20T05:03:23.422Z,70.9926
2019-04-20T05:04:33.937Z,71.0582
2019-04-20T05:05:41.360Z,71.0933
2019-04-20T05:06:46.996Z,71.4183
2019-04-20T05:07:52.169Z,72.2850
2019-04-20T05:08:51.378Z,72.4086
2019-04-20T05:09:54.873Z,72.7520
2019-04-20T05:10:58.343Z,72.9335
2019-04-20T05:12:07.209Z,73.4279
2019-04-20T05:13:09.311Z,73.9864
2019-04-20T05:14:20.284Z,74.0780
2019-04-20T05:15:33.671Z,74.3709
2019-04-20T05:16:45.090Z,74.5785
2019-04-20T05:18:00.210Z,74.5876
2019-04-20T05:19:10.484Z,74.8287
2019-04-20T05:20:09.280Z,74.8150
2019-04-20T05:21:24.496Z,75.1522
2019-04-20T05:22:35.149Z,75.3353
2019-04-20T05:23:28.025Z,75.4955
2019-04-20T05:24:41.402Z,75.7824
2019-04-20T05:25:57.081Z,75.8068
2019-04-20T05:27:01.899Z,75.6176
2019-04-20T05:28:08.198Z,75.7336
2019-04-20T05:29:06.764Z,75.6878
2019-04-20T05:30:05.571Z,75.4116
2019-04-20T05:31:10.230Z,75.1324
2019-04-20T05:32:18.545Z,74.6822
2019-04-20T05:33:34.177Z,74.5953
2019-04-20T05:34:54.094Z,74.5006
2019-04-20T05:36:01.860Z,73.9651
2019-04-20T05:37:17.708Z,73.5256
2019-04-20T05:38:23.075Z,73.1319
2019-04-20T05:39:27.745Z,73.0159
2019-04-20T05:40:35.229Z,72.2972
2019-04-20T05:41:38.331Z,72.0928
2019-04-20T05:42:48.662Z,71.8166
2019-04-20T05:43:50.570Z,70.5669
2019-04-20T05:45:01.883Z,70.5592
2019-04-20T05:46:06.251Z,70.2373
2019-04-20T05:47:18.085Z,70.4402
2019-04-20T05:48:20.513Z,69.7108
2019-04-20T05:49:34.515Z,69.0028
2019-04-20T05:50:42.382Z,68.4260
2019-04-20T05:51:47.718Z,68.1544
2019-04-20T05:53:01.676Z,68.0461
2019-04-20T05:54:11.957Z,68.1972
2019-04-20T05:55:16.181Z,67.8218
2019-04-20T05:56:29.346Z,68.4855
2019-04-20T05:57:34.948Z,67.5929
2019-04-20T05:58:38.787Z,67.7058
2019-04-20T05:59:51.377Z,68.0644
2019-04-20T06:01:01.621Z,68.9189
2019-04-20T06:02:08.034Z,68.5939
2019-04-20T06:03:05.673Z,67.8523
2019-04-20T06:04:30.217Z,67.5471
2019-04-20T06:05:28.726Z,66.9139
2019-04-20T06:06:37.681Z,66.4347
2019-04-20T06:07:42.407Z,66.4973
2019-04-20T06:08:56.627Z,65.5726
2019-04-20T06:09:59.682Z,65.6321
2019-04-20T06:11:07.985Z,66.3890
2019-04-20T06:12:19.847Z,65.7282
2019-04-20T06:13:17.791Z,65.5451
2019-04-20T06:14:17.203Z,65.3315
2019-04-20T06:15:42.079Z,65.5406
2019-04-20T06:16:52.776Z,65.3727
2019-04-20T06:17:53.180Z,65.2659
2019-04-20T06:19:18.260Z,65.1881
2019-04-20T06:20:12.748Z,64.9134
2019-04-20T06:21:26.577Z,64.6448
2019-04-20T06:22:31.022Z,63.7186
2019-04-20T06:23:41.529Z,63.0503
2019-04-20T06:24:53.110Z,62.3178
2019-04-20T06:26:03.837Z,61.0651
2019-04-20T06:27:00.826Z,60.6714
2019-04-20T06:28:06.653Z,60.6394
2019-04-20T06:29:16.433Z,61.0834
2019-04-20T06:30:20.896Z,61.0361
2019-04-20T06:31:32.476Z,61.0101
2019-04-20T06:32:40.385Z,60.9689
2019-04-20T06:34:01.478Z,60.8957
2019-04-20T06:34:53.507Z,61.1933
2019-04-20T06:36:14.021Z,60.4746
2019-04-20T06:37:09.872Z,60.4730
2019-04-20T06:38:38.324Z,60.6699
2019-04-20T06:40:59.361Z,60.1526
2019-04-20T06:42:02.250Z,60.0717
2019-04-20T06:42:53.483Z,59.2615
2019-04-20T06:44:03.841Z,58.9853
2019-04-20T06:45:16.221Z,58.6877
2019-04-20T06:46:14.833Z,58.6297
2019-04-20T06:47:27.300Z,58.5931
2019-04-20T06:48:41.372Z,58.6419
2019-04-20T06:49:55.090Z,58.1216
2019-04-20T06:50:44.747Z,58.4588
2019-04-20T06:51:59.324Z,58.2345
2019-04-20T06:53:12.935Z,58.8129
2019-04-20T06:54:05.497Z,59.1333
2019-04-20T06:55:14.250Z,58.2986
2019-04-20T06:56:33.632Z,57.1450
2019-04-20T06:57:36.821Z,57.2564
2019-04-20T06:58:54.474Z,57.3434
2019-04-20T06:59:58.016Z,56.6003
2019-04-20T07:01:03.689Z,55.5352
2019-04-20T07:02:17.278Z,55.8511
2019-04-20T07:03:30.976Z,56.0296
2019-04-20T07:04:38.765Z,56.0296
2019-04-20T07:05:34.681Z,55.4650
2019-04-20T07:09:00.565Z,54.7601
2019-04-20T07:11:19.482Z,53.8048
2019-04-20T07:12:17.194Z,51.9463
2019-04-20T07:13:17.658Z,52.7321
2019-04-20T07:14:28.944Z,53.0114
2019-04-20T07:15:42.747Z,53.3043
2019-04-20T07:16:53.179Z,52.3796
2019-04-20T07:18:06.132Z,51.9326
2019-04-20T07:19:07.882Z,50.6600
2019-04-20T07:20:12.840Z,49.5705
2019-04-20T07:21:37.519Z,48.6412
2019-04-20T07:23:42.290Z,49.8543
2019-04-20T07:24:59.291Z,50.5409
2019-04-20T07:26:02.314Z,51.1040
2019-04-20T07:27:10.380Z,50.0145
2019-04-20T07:28:24.152Z,50.8415
2019-04-20T07:29:26.961Z,51.3970
2019-04-20T07:30:33.454Z,51.9036
2019-04-20T07:31:38.025Z,51.5145
2019-04-20T07:32:52.525Z,51.9051
2019-04-20T07:33:52.105Z,51.7708
2019-04-20T07:35:03.062Z,52.5231
2019-04-20T07:36:15.431Z,52.5444
2019-04-20T07:38:36.584Z,53.5103
2019-04-20T07:39:37.312Z,54.9218
2019-04-20T07:40:38.189Z,55.0301
2019-04-20T07:41:57.257Z,54.5037
2019-04-20T07:42:55.364Z,53.9956
2019-04-20T07:44:28.091Z,53.7865
2019-04-20T07:45:16.952Z,54.1238
2019-04-20T07:46:37.556Z,54.3389
2019-04-20T07:47:34.465Z,54.6319
2019-04-20T07:48:39.528Z,54.4808
2019-04-20T07:49:41.624Z,54.5083
2019-04-20T07:50:44.883Z,53.9910
2019-04-20T07:51:43.867Z,54.2519
2019-04-20T07:53:07.449Z,54.0139
2019-04-20T07:54:24.704Z,53.0724
2019-04-20T07:56:39.388Z,52.9931
2019-04-20T07:57:40.497Z,52.7657
2019-04-20T07:58:40.103Z,53.0404
2019-04-20T07:59:59.079Z,53.5988
2019-04-20T08:01:19.665Z,53.3700
2019-04-20T08:02:28.981Z,51.6152
2019-04-20T08:03:29.366Z,51.6945
2019-04-20T08:04:30.053Z,52.8206
2019-04-20T08:05:31.124Z,52.7977
2019-04-20T08:06:36.889Z,52.6421
2019-04-20T08:07:44.752Z,52.6040
2019-04-20T08:08:58.668Z,53.0266
2019-04-20T08:09:58.472Z,52.3400
2019-04-20T08:11:16.430Z,50.2709
2019-04-20T08:12:34.086Z,50.6508
2019-04-20T08:13:42.094Z,50.7790
2019-04-20T08:14:44.453Z,50.5547
2019-04-20T08:18:07.053Z,50.8293
2019-04-20T08:19:12.281Z,52.2438
2019-04-20T08:20:23.317Z,52.5139
2019-04-20T08:21:28.593Z,52.5490
2019-04-20T08:22:42.079Z,52.6513
2019-04-20T08:23:44.088Z,53.2647
2019-04-20T08:24:48.778Z,53.2723
2019-04-20T08:25:56.076Z,53.1731
2019-04-20T08:26:55.885Z,52.9076
2019-04-20T08:27:59.108Z,52.8847
2019-04-20T08:29:09.186Z,52.3537
2019-04-20T08:30:32.307Z,52.7276
2019-04-20T08:31:33.494Z,51.7708
2019-04-20T08:32:45.220Z,51.4015
2019-04-20T08:34:07.778Z,51.2047
2019-04-20T08:35:10.473Z,50.6508
2019-04-20T08:36:10.803Z,51.3695
2019-04-20T08:37:17.467Z,50.1747
2019-04-20T08:39:46.365Z,50.2525
2019-04-20T08:40:45.807Z,48.6122
2019-04-20T08:41:58.893Z,48.9601
2019-04-20T08:43:11.204Z,48.6458
2019-04-20T08:44:21.429Z,46.9612
2019-04-20T08:45:16.767Z,47.4357
2019-04-20T08:46:20.615Z,47.5883
2019-04-20T08:47:38.195Z,47.4968
2019-04-20T08:48:43.571Z,47.7745
2019-04-20T08:49:49.179Z,47.5975
2019-04-20T08:50:58.439Z,47.8675
2019-04-20T08:52:12.840Z,48.6030
2019-04-20T08:54:16.456Z,47.9484
2019-04-20T08:55:23.390Z,48.2002
2019-04-20T08:56:24.608Z,48.0278
2019-04-20T08:57:22.612Z,48.1514
2019-04-20T08:58:25.296Z,47.1305
2019-04-20T08:59:27.318Z,47.2709
2019-04-20T09:00:38.328Z,47.3960
2019-04-20T09:01:39.438Z,47.3671
2019-04-20T09:02:48.906Z,47.0756
2019-04-20T09:04:03.523Z,46.2364
2019-04-20T09:05:04.919Z,46.1219
2019-04-20T09:06:24.959Z,46.1997
2019-04-20T09:07:22.580Z,45.9815
2019-04-20T09:08:29.848Z,45.5421
2019-04-20T09:09:55.813Z,44.7044
2019-04-20T09:11:00.030Z,43.9704
2019-04-20T09:12:07.584Z,43.0915
2019-04-20T09:13:08.336Z,42.9267
2019-04-20T09:14:05.909Z,42.6062
2019-04-20T09:15:10.572Z,42.7680
2019-04-20T09:16:13.329Z,42.1729
2019-04-20T09:17:24.338Z,42.2126
2019-04-20T09:18:31.292Z,42.0905
2019-04-20T09:19:42.760Z,42.1637
2019-04-20T09:20:50.711Z,42.0340
2019-04-20T09:21:55.147Z,41.5900
2019-04-20T09:23:14.573Z,40.6378
2019-04-20T09:24:32.982Z,41.2924
2019-04-20T09:25:48.393Z,40.6882
2019-04-20T09:26:42.292Z,40.8453
2019-04-20T09:27:38.411Z,40.0214
2019-04-20T09:28:48.000Z,40.1953
2019-04-20T09:30:03.333Z,40.5570
2019-04-20T09:31:11.944Z,40.2029
2019-04-20T09:32:16.914Z,39.9329
2019-04-20T09:33:28.896Z,39.2187
2019-04-20T09:34:41.886Z,38.6343
2019-04-20T09:35:42.923Z,38.5779
2019-04-20T09:36:48.399Z,38.9776
2019-04-20T09:38:01.808Z,39.2386
2019-04-20T09:39:01.175Z,40.2136
2019-04-20T09:40:15.867Z,40.0122
2019-04-20T09:41:35.346Z,40.8225
2019-04-20T09:42:14.312Z,40.2686
2019-04-20T09:43:18.547Z,38.9990
2019-04-20T09:44:25.635Z,38.3581
2019-04-20T09:45:37.354Z,37.7783
2019-04-20T09:46:44.390Z,37.6181
2019-04-20T09:47:51.187Z,37.1679
2019-04-20T09:48:59.012Z,37.3953
2019-04-20T09:50:20.946Z,38.0072
2019-04-20T09:51:30.204Z,38.4466
2019-04-20T09:52:32.201Z,38.0285
2019-04-20T09:53:39.389Z,38.2574
2019-04-20T09:54:45.969Z,37.2763
2019-04-20T09:55:59.490Z,37.2488
2019-04-20T09:57:09.117Z,36.7544
2019-04-20T09:58:12.311Z,37.6989
2019-04-20T09:59:22.038Z,37.7127
2019-04-20T10:00:28.906Z,37.6394
2019-04-20T10:01:31.235Z,36.1181
2019-04-20T10:02:34.472Z,36.1288
2019-04-20T10:03:38.818Z,36.4477
2019-04-20T10:04:42.289Z,36.0555
2019-04-20T10:05:45.483Z,36.9055
2019-04-20T10:06:49.613Z,37.7920
2019-04-20T10:07:56.912Z,37.4685
2019-04-20T10:09:03.477Z,38.0697
2019-04-20T10:10:17.860Z,37.8180
2019-04-20T10:11:17.264Z,37.5006
2019-04-20T10:12:21.727Z,35.4818
2019-04-20T10:13:25.312Z,34.7494
2019-04-20T10:14:28.882Z,34.8272
2019-04-20T10:15:32.990Z,33.5729
2019-04-20T10:16:37.739Z,33.1991
2019-04-20T10:17:41.481Z,32.3735
2019-04-20T10:18:48.113Z,32.4285
2019-04-20T10:19:53.431Z,32.0592
2019-04-20T10:20:56.280Z,31.1879
2019-04-20T10:22:02.415Z,32.0958
2019-04-20T10:23:06.697Z,32.6802
2019-04-20T10:24:10.528Z,32.4605
2019-04-20T10:25:13.317Z,31.3909
2019-04-20T10:26:16.464Z,30.5394
2019-04-20T10:27:20.570Z,31.3726
2019-04-20T10:28:25.530Z,32.6757
2019-04-20T10:29:28.370Z,33.0159
2019-04-20T10:30:32.466Z,32.4651
2019-04-20T10:31:42.644Z,33.6233
2019-04-20T10:32:47.235Z,35.3735
2019-04-20T10:33:51.445Z,35.3826
2019-04-20T10:34:54.876Z,35.9350
2019-04-20T10:35:59.442Z,35.5611
2019-04-20T10:37:03.749Z,34.8653
2019-04-20T10:38:07.528Z,34.8501
2019-04-20T10:39:10.877Z,32.9183
2019-04-20T10:40:27.973Z,31.2383
2019-04-20T10:41:36.135Z,31.3756
2019-04-20T10:42:30.267Z,31.5358
2019-04-20T10:43:33.354Z,33.0800
2019-04-20T10:44:36.921Z,33.3593
2019-04-20T10:45:41.224Z,33.0098
2019-04-20T10:46:44.929Z,33.3486
2019-04-20T10:47:48.278Z,31.8761
2019-04-20T10:48:53.304Z,31.4488
2019-04-20T10:49:58.887Z,31.0246
2019-04-20T10:51:03.131Z,29.3950
2019-04-20T10:52:07.485Z,28.0995
2019-04-20T10:53:10.343Z,27.8157
2019-04-20T10:54:14.223Z,28.6564
2019-04-20T10:55:18.599Z,30.5425
2019-04-20T10:56:21.443Z,30.5394
2019-04-20T10:57:25.670Z,30.5257
2019-04-20T10:58:29.587Z,30.6661
2019-04-20T10:59:32.389Z,31.0475
2019-04-20T11:00:35.589Z,31.0185
2019-04-20T11:01:38.317Z,30.8125
2019-04-20T11:02:43.940Z,30.7897
2019-04-20T11:03:48.275Z,30.8186
2019-04-20T11:04:52.538Z,31.8608
2019-04-20T11:05:56.415Z,31.4626
2019-04-20T11:07:00.722Z,31.3268
2019-04-20T11:08:04.393Z,30.2998
2019-04-20T11:09:08.745Z,30.2419
2019-04-20T11:10:19.792Z,30.8080
2019-04-20T11:11:25.218Z,30.2129
2019-04-20T11:12:28.469Z,29.8070
2019-04-20T11:13:31.342Z,30.6172
2019-04-20T11:14:37.212Z,31.4031
2019-04-20T11:15:44.427Z,31.4824
2019-04-20T11:16:48.462Z,31.1666
2019-04-20T11:17:51.435Z,30.7088
2019-04-20T11:18:55.497Z,30.6020
2019-04-20T11:19:59.188Z,29.9947
2019-04-20T11:21:03.525Z,30.3319
2019-04-20T11:22:06.316Z,29.5125
2019-04-20T11:23:10.629Z,28.5420
2019-04-20T11:24:14.371Z,29.1600
2019-04-20T11:25:17.345Z,30.5074
2019-04-20T11:26:20.344Z,30.3868
2019-04-20T11:27:23.304Z,30.9331
2019-04-20T11:28:26.326Z,30.8400
2019-04-20T11:29:29.290Z,31.7250
2019-04-20T11:30:32.342Z,30.4646
2019-04-20T11:31:39.513Z,30.1366
2019-04-20T11:32:44.331Z,29.9794
2019-04-20T11:33:48.025Z,28.6397
2019-04-20T11:34:51.325Z,28.7663
2019-04-20T11:35:54.988Z,29.4575
2019-04-20T11:36:59.233Z,30.3426
2019-04-20T11:38:02.946Z,30.0938
2019-04-20T11:39:07.127Z,30.4021
2019-04-20T11:40:10.918Z,30.0938
2019-04-20T11:41:22.753Z,29.5369
2019-04-20T11:42:23.544Z,29.0150
2019-04-20T11:43:26.285Z,29.0639
2019-04-20T11:44:31.457Z,29.4667
2019-04-20T11:45:38.422Z,29.7612
2019-04-20T11:46:42.803Z,28.6427
2019-04-20T11:47:47.400Z,29.4636
2019-04-20T11:48:51.707Z,29.9214
2019-04-20T11:49:55.461Z,29.6284
2019-04-20T11:50:58.353Z,29.8619
2019-04-20T11:52:01.521Z,29.4636
2019-04-20T11:53:05.265Z,28.6564
2019-04-20T11:54:08.377Z,28.2506
2019-04-20T11:55:12.519Z,28.6580
2019-04-20T11:56:23.806Z,27.6875
2019-04-20T11:57:23.313Z,26.3401
2019-04-20T11:58:26.306Z,26.7445
2019-04-20T11:59:30.346Z,26.7353
2019-04-20T12:00:34.290Z,26.2547
2019-04-20T12:01:47.651Z,26.4607
2019-04-20T12:02:53.560Z,26.6606
2019-04-20T12:04:04.110Z,27.0314
2019-04-20T12:05:17.357Z,27.0054
2019-04-20T12:06:13.306Z,27.3899
2019-04-20T12:07:19.223Z,27.3213
2019-04-20T12:08:22.941Z,27.3671
2019-04-20T12:09:26.342Z,27.3945
2019-04-20T12:10:30.049Z,27.7516
2019-04-20T12:11:47.533Z,27.1275
2019-04-20T12:12:47.293Z,27.2877
2019-04-20T12:13:50.307Z,27.8843
2019-04-20T12:14:54.671Z,28.0247
2019-04-20T12:15:59.360Z,27.4952
2019-04-20T12:17:03.672Z,26.9093
2019-04-20T12:18:07.583Z,26.4103
2019-04-20T12:19:10.553Z,25.7679
2019-04-20T12:20:14.533Z,25.8335
2019-04-20T12:21:17.286Z,27.5044
2019-04-20T12:22:21.506Z,28.0980
2019-04-20T12:23:24.528Z,28.3314
2019-04-20T12:24:27.310Z,27.8004
2019-04-20T12:25:34.173Z,28.1361
2019-04-20T12:26:38.681Z,27.9744
2019-04-20T12:27:48.806Z,28.1178
2019-04-20T12:28:49.686Z,27.6417
2019-04-20T12:29:52.277Z,28.4047
2019-04-20T12:31:03.053Z,28.2231
2019-04-20T12:32:05.431Z,28.2872
2019-04-20T12:33:11.501Z,28.7587
2019-04-20T12:34:14.317Z,27.7104
2019-04-20T12:35:18.163Z,27.9469
2019-04-20T12:36:21.319Z,28.5756
2019-04-20T12:37:25.068Z,28.6748
2019-04-20T12:38:28.374Z,27.8874
2019-04-20T12:39:31.308Z,28.3513
2019-04-20T12:40:35.417Z,27.7867
2019-04-20T12:41:45.345Z,28.2780
2019-04-20T12:42:46.635Z,28.4688
2019-04-20T12:43:49.815Z,29.0425
2019-04-20T12:44:53.427Z,28.8273
2019-04-20T12:45:55.853Z,28.6076
2019-04-20T12:46:59.642Z,28.0659
2019-04-20T12:48:03.773Z,27.7867
2019-04-20T12:49:07.671Z,28.6168
2019-04-20T12:50:11.872Z,28.3406
2019-04-20T12:51:15.583Z,29.3431
2019-04-20T12:52:18.583Z,29.6605
2019-04-20T12:53:22.344Z,29.2790
2019-04-20T12:54:25.326Z,29.0318
2019-04-20T12:55:28.401Z,29.2531
2019-04-20T12:56:32.663Z,28.7938
2019-04-20T12:57:36.552Z,29.1112
2019-04-20T12:58:42.968Z,28.4291
2019-04-20T12:59:48.712Z,28.4749
2019-04-20T13:00:52.429Z,28.2353
2019-04-20T13:01:55.490Z,28.2170
2019-04-20T13:02:59.150Z,28.3696
2019-04-20T13:04:04.499Z,28.6381
2019-04-20T13:05:09.427Z,28.5328
2019-04-20T13:06:12.276Z,29.1203
2019-04-20T13:07:15.627Z,29.5689
2019-04-20T13:08:29.595Z,29.4347
2019-04-20T13:09:26.397Z,29.7093
2019-04-20T13:10:29.612Z,29.6315
2019-04-20T13:11:44.353Z,29.6834
2019-04-20T13:12:40.679Z,29.0333
2019-04-20T13:13:44.339Z,28.7160
2019-04-20T13:14:48.443Z,29.3538
2019-04-20T13:15:52.149Z,28.6702
2019-04-20T13:16:56.825Z,28.3879
2019-04-20T13:18:01.245Z,28.6427
2019-04-20T13:19:05.608Z,29.3996
2019-04-20T13:20:08.307Z,28.1483
2019-04-20T13:21:11.349Z,28.6946
2019-04-20T13:22:14.839Z,28.3726
2019-04-20T13:23:20.144Z,28.4916
2019-04-20T13:24:23.324Z,28.7037
2019-04-20T13:25:26.380Z,29.1005
2019-04-20T13:26:29.329Z,29.5583
2019-04-20T13:27:32.304Z,29.9626
2019-04-20T13:28:35.310Z,28.4962
2019-04-20T13:29:38.395Z,28.4871
2019-04-20T13:30:41.893Z,28.1590
2019-04-20T13:31:45.272Z,28.6671
2019-04-20T13:32:48.332Z,28.3406
2019-04-20T13:33:51.641Z,28.5801
2019-04-20T13:34:54.366Z,28.4550
2019-04-20T13:35:58.473Z,28.6473
2019-04-20T13:37:02.256Z,28.0659
2019-04-20T13:38:05.301Z,27.7958
2019-04-20T13:39:08.324Z,27.8462
2019-04-20T13:40:11.335Z,27.9789
2019-04-20T13:41:15.668Z,27.6051
2019-04-20T13:42:24.556Z,27.9698
2019-04-20T13:43:27.961Z,27.8645
2019-04-20T13:44:32.399Z,27.7150
2019-04-20T13:45:35.282Z,27.6280
2019-04-20T13:46:38.887Z,27.4311
2019-04-20T13:47:43.208Z,27.0695
2019-04-20T13:48:46.842Z,26.9810
2019-04-20T13:49:51.348Z,27.3167
2019-04-20T13:50:56.074Z,27.3442
2019-04-20T13:51:59.321Z,27.4891